Codajas, Brazil
Current Conditions -  °F | °C
As of 2:00 AM on Saturday 20 Dec 2014 (Local Time) from SBEG Reporting Station
Broken Clouds Broken Clouds  
Wind Chill: 77°   Ceiling: 1000
Heat Index: 78°   Visibility: 6mi
Dew Point: 73°   Wind: 2mph
Humidity: 89%   Direction: 210°SSW
Pressure: 29.8"   Gusts: NA
Location:  3.82°S, 62.07°W
Report Text: SBEG 200600Z 21002KT 9999 BKN010 25/23 Q1009
Loading
Personal Weather Stations






























Interactive Weather Map New forecast layout! Learn more

10-Day Weather Forecast

Advertisements
Track Severe Weather on mobile